Time;durP1;ratioP1;P1;durP2;ratioP2;P2;SDS_P1;SDS_P2;PMS_P1;PMS_P2;Temp;Humidity;BMP_temperature;BMP_pressure;BME280_temperature;BME280_humidity;BME280_pressure;Samples;Min_cycle;Max_cycle;Signal;HPM_P1;HPM_P2
2021/09/13 00:02:03;;;;;;;5.47;2.13;;;;;;;22.71;56.80;101714.22;5070706;28;20513;-60
2021/09/13 00:04:29;;;;;;;4.30;2.30;;;;;;;22.71;56.59;101706.19;5070828;28;20487;-60
2021/09/13 00:06:54;;;;;;;3.28;2.10;;;;;;;22.70;56.71;101703.72;5071305;28;20033;-60
2021/09/13 00:09:20;;;;;;;3.67;2.22;;;;;;;22.71;56.93;101702.69;5069995;28;20085;-60
2021/09/13 00:11:45;;;;;;;4.43;2.45;;;;;;;22.70;56.44;101695.69;5071158;28;20044;-60
2021/09/13 00:14:11;;;;;;;4.13;2.15;;;;;;;22.70;56.78;101704.53;5070916;28;20451;-60
2021/09/13 00:16:36;;;;;;;4.75;1.90;;;;;;;22.70;56.75;101695.69;5071757;28;20127;-60
2021/09/13 00:19:02;;;;;;;5.07;2.28;;;;;;;22.69;56.82;101694.88;5070500;28;20067;-60
2021/09/13 00:21:27;;;;;;;3.08;2.00;;;;;;;22.70;56.82;101699.19;5071208;28;20064;-60
2021/09/13 00:23:53;;;;;;;4.40;2.50;;;;;;;22.68;56.81;101687.88;5069374;28;20040;-60
2021/09/13 00:26:18;;;;;;;2.70;2.05;;;;;;;22.68;56.91;101689.72;5069802;28;20505;-60
2021/09/13 00:28:43;;;;;;;3.33;1.85;;;;;;;22.69;56.94;101684.16;5069436;28;20460;-60
2021/09/13 00:31:09;;;;;;;3.70;2.10;;;;;;;22.70;56.82;101683.13;5069663;28;20551;-60
2021/09/13 00:33:35;;;;;;;3.25;1.80;;;;;;;22.68;56.70;101671.00;5070265;28;20369;-60
2021/09/13 00:36:01;;;;;;;4.22;2.20;;;;;;;22.67;56.48;101680.88;5070971;28;20321;-60
2021/09/13 00:38:27;;;;;;;3.90;2.28;;;;;;;22.67;56.45;101675.53;5071017;28;20111;-60
2021/09/13 00:40:52;;;;;;;3.80;2.00;;;;;;;22.67;56.42;101680.88;5070358;28;20210;-60
2021/09/13 00:43:18;;;;;;;2.35;1.90;;;;;;;22.66;56.50;101665.84;5068884;28;20298;-60
2021/09/13 00:45:43;;;;;;;5.43;2.13;;;;;;;22.67;56.49;101672.03;5070853;28;20032;-60
2021/09/13 00:48:09;;;;;;;4.65;1.88;;;;;;;22.66;56.42;101679.22;5070144;28;20044;-60
2021/09/13 00:50:34;;;;;;;2.80;1.90;;;;;;;22.66;56.37;101673.88;5071161;28;20392;-60
2021/09/13 00:53:00;;;;;;;3.47;1.90;;;;;;;22.67;56.69;101674.69;5070997;28;20036;-60
2021/09/13 00:55:26;;;;;;;3.17;2.25;;;;;;;22.65;56.60;101677.56;5070265;28;20051;-60
2021/09/13 00:57:54;;;;;;;2.78;2.10;;;;;;;22.65;56.48;101677.56;5070203;28;20116;-60
2021/09/13 01:00:20;;;;;;;3.38;2.10;;;;;;;22.64;56.51;101665.22;5069428;28;20047;-60
2021/09/13 01:02:45;;;;;;;2.50;1.83;;;;;;;22.65;56.44;101674.06;5068835;28;20427;-60
2021/09/13 01:05:12;;;;;;;3.13;1.70;;;;;;;22.65;56.44;101676.75;5068439;28;20059;-60
2021/09/13 01:07:38;;;;;;;3.88;2.20;;;;;;;22.64;56.54;101670.56;5070150;28;20052;-60
2021/09/13 01:10:05;;;;;;;3.67;2.00;;;;;;;22.64;56.51;101670.56;5069908;28;20035;-60
2021/09/13 01:12:30;;;;;;;3.00;2.08;;;;;;;22.65;56.43;101672.22;5070320;28;20503;-60
2021/09/13 01:14:56;;;;;;;3.08;2.13;;;;;;;22.63;56.66;101652.88;5069510;28;20036;-60
2021/09/13 01:17:21;;;;;;;4.03;2.10;;;;;;;22.64;56.47;101659.03;5070282;28;20044;-60
2021/09/13 01:19:47;;;;;;;3.55;1.90;;;;;;;22.64;56.42;101656.38;5069942;28;20044;-61
2021/09/13 01:22:13;;;;;;;2.45;1.85;;;;;;;22.64;56.27;101643.81;5070209;28;20039;-60
2021/09/13 01:24:39;;;;;;;2.50;1.95;;;;;;;22.63;56.41;101650.19;5069713;28;20047;-60
2021/09/13 01:27:07;;;;;;;3.17;1.73;;;;;;;22.63;56.28;101647.53;5070064;28;20399;-60
2021/09/13 01:29:34;;;;;;;2.45;1.80;;;;;;;22.63;56.49;101642.16;5069774;28;20068;-60
2021/09/13 01:32:00;;;;;;;2.60;1.92;;;;;;;22.63;56.37;101639.50;5069543;28;20039;-60
2021/09/13 01:34:26;;;;;;;3.58;2.00;;;;;;;22.63;56.48;101636.00;5068296;28;20103;-60
2021/09/13 01:36:52;;;;;;;3.55;1.90;;;;;;;22.62;56.17;101632.50;5069650;28;20036;-60
2021/09/13 01:39:18;;;;;;;2.50;1.80;;;;;;;22.63;56.71;101638.69;5069858;28;20124;-60
2021/09/13 01:41:44;;;;;;;3.05;1.88;;;;;;;22.62;56.39;101632.50;5070095;28;20190;-60
2021/09/13 01:44:12;;;;;;;2.65;1.80;;;;;;;22.63;56.79;101634.16;5068941;28;20033;-60
2021/09/13 01:46:38;;;;;;;2.80;1.70;;;;;;;22.63;56.65;101626.13;5069981;28;20032;-60
2021/09/13 01:49:06;;;;;;;3.00;1.70;;;;;;;22.63;56.59;101625.31;5068514;28;20032;-60
2021/09/13 01:51:32;;;;;;;2.08;1.60;;;;;;;22.63;56.68;101622.63;5069847;28;20037;-60
2021/09/13 01:53:57;;;;;;;2.47;1.88;;;;;;;22.62;56.53;101613.78;5069330;28;20033;-60
2021/09/13 01:56:23;;;;;;;3.85;1.90;;;;;;;22.63;56.46;101614.59;5069831;28;20040;-60
2021/09/13 01:58:48;;;;;;;2.55;1.60;;;;;;;22.62;56.29;101613.78;5067917;28;20475;-60
2021/09/13 02:01:14;;;;;;;3.90;2.10;;;;;;;22.63;56.76;101615.44;5068321;28;20391;-60
2021/09/13 02:03:39;;;;;;;2.38;1.60;;;;;;;22.62;56.65;101619.13;5067711;28;20369;-60
2021/09/13 02:06:05;;;;;;;3.25;1.70;;;;;;;22.63;56.80;101618.09;5069161;28;20431;-60
2021/09/13 02:08:30;;;;;;;3.50;1.50;;;;;;;22.63;56.87;101611.94;5067624;28;20113;-60
2021/09/13 02:10:56;;;;;;;2.17;1.70;;;;;;;22.62;56.68;101621.81;5069059;28;20037;-60
2021/09/13 02:13:21;;;;;;;2.13;1.73;;;;;;;22.62;56.84;101611.09;5068942;28;20032;-60
2021/09/13 02:15:47;;;;;;;2.28;1.50;;;;;;;22.62;56.73;101610.28;5069267;28;20579;-60
2021/09/13 02:18:12;;;;;;;3.25;1.90;;;;;;;22.62;56.82;101608.44;5067596;28;20842;-60
2021/09/13 02:20:37;;;;;;;2.03;1.70;;;;;;;22.62;56.87;101613.78;5067738;28;20554;-60
2021/09/13 02:23:03;;;;;;;3.38;1.63;;;;;;;22.61;56.69;101609.47;5069096;28;20515;-60
2021/09/13 02:25:28;;;;;;;2.08;1.58;;;;;;;22.61;56.53;101609.47;5069137;28;20441;-60
2021/09/13 02:27:54;;;;;;;2.65;1.70;;;;;;;22.62;56.85;101604.94;5068742;28;20063;-60
2021/09/13 02:30:19;;;;;;;2.28;1.70;;;;;;;22.61;56.99;101612.13;5067247;28;20448;-60
2021/09/13 02:32:45;;;;;;;4.55;2.03;;;;;;;22.61;56.92;101601.44;5068970;28;20376;-60
2021/09/13 02:35:10;;;;;;;2.95;1.63;;;;;;;22.62;56.70;101602.25;5066608;28;20037;-60
2021/09/13 02:37:37;;;;;;;3.42;1.40;;;;;;;22.61;56.70;101601.44;5068825;28;20089;-60
2021/09/13 02:40:04;;;;;;;2.88;2.00;;;;;;;22.61;56.87;101596.09;5068284;28;20124;-60
2021/09/13 02:42:30;;;;;;;3.00;1.75;;;;;;;22.61;56.69;101593.41;5068562;28;20481;-60
2021/09/13 02:44:55;;;;;;;1.77;1.30;;;;;;;22.61;57.06;101584.56;5067910;28;20029;-61
2021/09/13 02:47:21;;;;;;;2.25;1.45;;;;;;;22.61;56.99;101587.22;5050143;28;20039;-60
2021/09/13 02:49:46;;;;;;;3.35;1.77;;;;;;;22.61;56.79;101584.56;5067936;28;20044;-60
2021/09/13 02:52:12;;;;;;;2.97;1.58;;;;;;;22.60;57.13;101581.06;5068050;28;20029;-60
2021/09/13 02:54:37;;;;;;;3.85;1.80;;;;;;;22.61;56.80;101584.56;5068237;28;20032;-60
2021/09/13 02:57:03;;;;;;;3.38;1.50;;;;;;;22.60;56.76;101578.38;5067053;28;20139;-60
2021/09/13 02:59:28;;;;;;;1.95;1.50;;;;;;;22.61;56.86;101580.03;5067325;28;20044;-60
2021/09/13 03:01:54;;;;;;;2.63;1.67;;;;;;;22.60;56.80;101583.75;5067857;28;20083;-61
2021/09/13 03:04:19;;;;;;;1.73;1.60;;;;;;;22.61;57.08;101581.88;5066069;28;20024;-60
2021/09/13 03:06:45;;;;;;;2.10;1.60;;;;;;;22.59;57.09;101579.41;5068246;28;20092;-60
2021/09/13 03:09:10;;;;;;;2.13;1.52;;;;;;;22.59;56.91;101576.75;5067695;28;20040;-60
2021/09/13 03:11:36;;;;;;;1.50;1.20;;;;;;;22.59;56.83;101576.75;5068466;28;20115;-60
2021/09/13 03:14:01;;;;;;;2.20;1.83;;;;;;;22.59;57.19;101571.38;5067753;28;20446;-60
2021/09/13 03:16:26;;;;;;;2.72;1.55;;;;;;;22.59;57.31;101565.22;5068171;28;20028;-60
2021/09/13 03:18:52;;;;;;;2.88;1.60;;;;;;;22.60;56.96;101574.88;5067914;28;20041;-60
2021/09/13 03:21:18;;;;;;;2.10;1.42;;;;;;;22.59;57.08;101571.38;5067950;28;20044;-60
2021/09/13 03:23:43;;;;;;;1.70;1.30;;;;;;;22.59;57.11;101568.72;5068246;28;20032;-60
2021/09/13 03:26:09;;;;;;;2.65;1.75;;;;;;;22.59;56.92;101566.03;5066212;28;20040;-60
2021/09/13 03:28:34;;;;;;;2.03;1.52;;;;;;;22.60;57.02;101565.03;5067672;28;20035;-60
2021/09/13 03:31:03;;;;;;;4.15;1.75;;;;;;;22.58;57.17;101551.03;5072131;28;20430;-60
2021/09/13 03:33:29;;;;;;;1.90;1.50;;;;;;;22.59;57.34;101554.53;5071734;28;20048;-60
2021/09/13 03:35:55;;;;;;;2.00;1.55;;;;;;;22.59;57.40;101554.53;5072079;28;20111;-60
2021/09/13 03:38:21;;;;;;;3.05;1.80;;;;;;;22.59;57.39;101560.69;5071455;28;20032;-60
2021/09/13 03:40:46;;;;;;;2.47;1.60;;;;;;;22.59;57.22;101554.53;5070873;28;20052;-60
2021/09/13 03:43:12;;;;;;;2.00;1.42;;;;;;;22.58;57.27;101551.03;5070958;28;20509;-60
2021/09/13 03:45:37;;;;;;;1.92;1.40;;;;;;;22.59;57.52;101546.50;5070645;28;20052;-60
2021/09/13 03:48:03;;;;;;;2.25;1.30;;;;;;;22.59;57.27;101546.50;5071530;28;20124;-61
2021/09/13 03:50:29;;;;;;;1.65;1.30;;;;;;;22.59;57.60;101543.81;5071587;28;20108;-60
2021/09/13 03:52:54;;;;;;;2.75;1.60;;;;;;;22.58;57.61;101542.19;5071845;28;20044;-60
2021/09/13 03:55:20;;;;;;;3.70;1.40;;;;;;;22.57;57.67;101541.34;5071015;28;20037;-60
2021/09/13 03:57:45;;;;;;;2.15;1.50;;;;;;;22.59;57.49;101535.81;5071843;28;20025;-60
2021/09/13 04:00:11;;;;;;;1.75;1.45;;;;;;;22.58;57.61;101526.97;5068728;28;20040;-60
2021/09/13 04:02:40;;;;;;;1.52;1.30;;;;;;;22.58;57.45;101529.63;5071693;28;20055;-60
2021/09/13 04:05:06;;;;;;;2.60;1.60;;;;;;;22.58;57.53;101529.63;5070895;28;20475;-60
2021/09/13 04:07:36;;;;;;;3.17;1.90;;;;;;;22.58;57.54;101518.13;5085192;28;20106;-60
2021/09/13 04:12:36;;;;;;;;;;;;;;;22.49;57.82;101513.94;5071795;28;20553;-60
2021/09/13 04:15:02;;;;;;;2.67;1.50;;;;;;;22.55;57.83;101516.63;5070537;28;19920;-60
2021/09/13 04:17:27;;;;;;;2.80;1.52;;;;;;;22.56;57.66;101512.94;5071288;28;20027;-60
2021/09/13 04:19:53;;;;;;;1.58;1.38;;;;;;;22.57;57.80;101514.63;5070988;28;20041;-60
2021/09/13 04:22:18;;;;;;;2.13;1.55;;;;;;;22.57;57.56;101514.63;5069643;28;20403;-60
2021/09/13 04:24:44;;;;;;;2.55;1.40;;;;;;;22.57;57.83;101513.78;5071518;28;20344;-60
2021/09/13 04:27:10;;;;;;;1.90;1.40;;;;;;;22.57;57.66;101508.44;5071148;28;20395;-60
2021/09/13 04:29:35;;;;;;;1.85;1.42;;;;;;;22.57;57.56;101509.25;5070123;28;20059;-60
2021/09/13 04:32:01;;;;;;;2.10;1.40;;;;;;;22.56;57.67;101507.59;5069602;28;20090;-60
2021/09/13 04:34:26;;;;;;;2.25;1.40;;;;;;;22.57;57.67;101503.09;5070237;28;20039;-60
2021/09/13 04:36:52;;;;;;;2.17;1.30;;;;;;;22.56;57.67;101504.91;5070960;28;20041;-60
2021/09/13 04:39:17;;;;;;;1.90;1.50;;;;;;;22.56;57.95;101506.75;5069352;28;20051;-60
2021/09/13 04:41:43;;;;;;;2.20;1.40;;;;;;;22.55;57.71;101494.41;5056227;28;20081;-60
2021/09/13 04:44:08;;;;;;;1.90;1.40;;;;;;;22.56;57.72;101501.41;5070381;28;20048;-60
2021/09/13 04:46:34;;;;;;;2.92;1.40;;;;;;;22.56;57.70;101496.06;5070888;28;20406;-60
2021/09/13 04:48:59;;;;;;;2.10;1.27;;;;;;;22.55;57.93;101497.91;5068786;28;20048;-60
2021/09/13 04:51:25;;;;;;;1.63;1.30;;;;;;;22.54;57.59;101496.28;5070437;28;20028;-60
2021/09/13 04:53:50;;;;;;;1.70;1.40;;;;;;;22.56;58.18;101498.75;5070319;28;20040;-60
2021/09/13 04:56:15;;;;;;;2.00;1.33;;;;;;;22.54;57.81;101498.94;5069502;28;20081;-60
2021/09/13 04:58:41;;;;;;;2.42;1.30;;;;;;;22.54;57.53;101496.28;5069336;28;20052;-60
2021/09/13 05:01:07;;;;;;;1.48;1.20;;;;;;;22.54;57.90;101496.28;5069281;28;20040;-60
2021/09/13 05:03:33;;;;;;;1.95;1.30;;;;;;;22.55;57.41;101495.25;5069085;28;20491;-60
2021/09/13 05:05:58;;;;;;;1.80;1.27;;;;;;;22.54;57.58;101493.59;5069931;28;20044;-60
2021/09/13 05:08:24;;;;;;;2.35;1.40;;;;;;;22.54;57.60;101490.09;5068951;28;20449;-60
2021/09/13 05:10:49;;;;;;;1.42;1.15;;;;;;;22.54;57.71;101484.75;5070063;28;20482;-60
2021/09/13 05:13:15;;;;;;;1.95;1.20;;;;;;;22.52;57.58;101479.59;5067726;28;20032;-60
2021/09/13 05:15:40;;;;;;;1.25;1.10;;;;;;;22.53;57.85;101483.94;5069023;28;20024;-60
2021/09/13 05:18:06;;;;;;;1.77;1.30;;;;;;;22.54;57.62;101487.44;5068884;28;20038;-61
2021/09/13 05:20:31;;;;;;;2.25;1.30;;;;;;;22.53;57.71;101477.75;5069572;28;20052;-60
2021/09/13 05:22:56;;;;;;;1.33;1.17;;;;;;;22.54;57.74;101482.06;5069782;28;20040;-60
2021/09/13 05:25:22;;;;;;;1.98;1.38;;;;;;;22.54;57.79;101482.06;5067873;28;20036;-60
2021/09/13 05:27:48;;;;;;;2.58;1.30;;;;;;;22.54;57.75;101487.44;5070209;28;20035;-60
2021/09/13 05:30:15;;;;;;;1.35;1.20;;;;;;;22.54;57.89;101479.41;5069669;28;20036;-60
2021/09/13 05:32:40;;;;;;;2.17;1.42;;;;;;;22.53;57.63;101475.91;5068188;28;20455;-60
2021/09/13 05:35:06;;;;;;;1.50;1.10;;;;;;;22.53;57.71;101481.25;5069170;28;20052;-61
2021/09/13 05:37:31;;;;;;;1.48;1.25;;;;;;;22.53;58.07;101481.25;5068729;28;20056;-60
2021/09/13 05:39:58;;;;;;;2.65;1.35;;;;;;;22.53;58.16;101472.41;5073997;28;20052;-61
2021/09/13 05:42:24;;;;;;;1.92;1.50;;;;;;;22.53;57.91;101475.91;5083349;28;20805;-61
2021/09/13 05:44:49;;;;;;;3.13;1.40;;;;;;;22.52;57.91;101470.75;5080665;28;20085;-61
2021/09/13 05:47:15;;;;;;;2.63;1.50;;;;;;;22.52;57.94;101465.41;5068231;28;20107;-61
2021/09/13 05:49:40;;;;;;;2.90;1.30;;;;;;;22.52;58.22;101471.59;5082406;28;20024;-62
2021/09/13 05:52:06;;;;;;;1.38;1.10;;;;;;;22.52;58.44;101478.78;5058439;28;20029;-60
2021/09/13 05:54:31;;;;;;;3.47;1.17;;;;;;;22.51;58.30;101472.63;5069262;28;20447;-60
2021/09/13 05:56:57;;;;;;;3.45;1.30;;;;;;;22.52;58.38;101479.59;5068178;28;20040;-60
2021/09/13 05:59:24;;;;;;;2.70;1.20;;;;;;;22.52;58.13;101474.25;5044363;28;20785;-60
2021/09/13 06:01:50;;;;;;;2.00;1.40;;;;;;;22.53;58.26;101480.44;5070310;28;20032;-60
2021/09/13 06:04:19;;;;;;;2.25;1.20;;;;;;;22.52;58.29;101482.28;5064217;28;20105;-61
2021/09/13 06:06:45;;;;;;;1.92;1.20;;;;;;;22.52;58.34;101482.28;5064401;28;20059;-61
2021/09/13 06:09:11;;;;;;;2.60;1.20;;;;;;;22.51;58.17;101488.66;5067217;28;20052;-60
2021/09/13 06:11:37;;;;;;;1.85;1.20;;;;;;;22.51;58.07;101488.66;5068316;28;20528;-60
2021/09/13 06:14:03;;;;;;;1.70;1.20;;;;;;;22.52;58.25;101487.63;5079522;28;20086;-60
2021/09/13 06:16:29;;;;;;;1.73;1.15;;;;;;;22.51;58.37;101487.84;5074644;28;20037;-60
2021/09/13 06:18:54;;;;;;;2.08;1.20;;;;;;;22.51;58.28;101485.97;5063723;28;20424;-60
2021/09/13 06:21:20;;;;;;;1.67;1.10;;;;;;;22.51;57.97;101483.31;5058238;28;20044;-60
2021/09/13 06:23:46;;;;;;;1.80;1.20;;;;;;;22.51;58.24;101487.84;5072426;28;20040;-60
2021/09/13 06:26:16;;;;;;;2.83;1.40;;;;;;;22.50;58.10;101489.69;5074184;28;20086;-60
2021/09/13 06:28:42;;;;;;;1.50;1.20;;;;;;;22.51;58.03;101495.84;5068333;28;20033;-60
2021/09/13 06:31:08;;;;;;;2.47;1.38;;;;;;;22.50;58.28;101489.69;5073325;28;20103;-60
2021/09/13 06:33:33;;;;;;;2.83;1.30;;;;;;;22.50;58.00;101487.00;5062463;28;20140;-60
2021/09/13 06:35:59;;;;;;;2.70;1.23;;;;;;;22.50;58.05;101487.00;5064588;28;20452;-60
2021/09/13 06:38:25;;;;;;;2.58;1.20;;;;;;;22.49;58.44;101485.34;5068297;28;20498;-60
2021/09/13 06:40:51;;;;;;;2.78;1.40;;;;;;;22.50;58.26;101484.34;5068796;28;20066;-60
2021/09/13 06:43:17;;;;;;;1.98;1.42;;;;;;;22.50;58.10;101484.34;5067517;28;20036;-60
2021/09/13 06:45:46;;;;;;;2.33;1.20;;;;;;;22.51;58.11;101490.50;5067494;28;20157;-60
2021/09/13 06:48:14;;;;;;;3.05;1.20;;;;;;;22.50;58.21;101484.34;5067641;28;20061;-60
2021/09/13 06:50:43;;;;;;;1.60;1.05;;;;;;;22.50;58.17;101487.00;5068803;28;20035;-60
2021/09/13 06:53:09;;;;;;;2.05;1.25;;;;;;;22.50;58.28;101487.00;5066447;28;20447;-61
2021/09/13 06:55:39;;;;;;;2.60;1.20;;;;;;;22.50;58.17;101491.53;5068943;28;20120;-60
2021/09/13 06:58:06;;;;;;;1.45;1.00;;;;;;;22.50;58.16;101495.03;5068146;28;20082;-60
2021/09/13 07:00:31;;;;;;;1.55;1.20;;;;;;;22.49;58.37;101488.03;5067511;28;20134;-60
2021/09/13 07:02:57;;;;;;;2.00;1.10;;;;;;;22.49;58.30;101490.72;5068151;28;20055;-61
2021/09/13 07:05:23;;;;;;;4.50;1.10;;;;;;;22.50;58.63;101494.22;5066347;28;20048;-60
2021/09/13 07:07:48;;;;;;;1.92;1.10;;;;;;;22.49;58.34;101493.38;5063771;28;20140;-60
2021/09/13 07:10:17;;;;;;;2.72;1.20;;;;;;;22.49;58.52;101490.72;5077851;28;20038;-60
2021/09/13 07:12:43;;;;;;;1.30;1.20;;;;;;;22.49;58.62;101493.38;5059030;28;20052;-61
2021/09/13 07:15:09;;;;;;;5.13;1.60;;;;;;;22.49;58.65;101489.88;5064770;28;20116;-61
2021/09/13 07:17:35;;;;;;;7.70;1.90;;;;;;;22.48;58.87;101493.59;5061224;28;20141;-61
2021/09/13 07:20:00;;;;;;;5.70;1.75;;;;;;;22.48;59.16;101488.25;5066512;28;20025;-61
2021/09/13 07:22:26;;;;;;;7.47;1.48;;;;;;;22.49;59.23;101490.72;5055025;28;20040;-61
2021/09/13 07:24:51;;;;;;;7.72;1.67;;;;;;;22.48;59.72;101489.06;5077776;28;20065;-60
2021/09/13 07:27:17;;;;;;;5.05;1.50;;;;;;;22.49;59.58;101489.88;5044831;28;20036;-61
2021/09/13 07:29:43;;;;;;;6.03;1.70;;;;;;;22.49;59.49;101493.38;5074768;28;20439;-61
2021/09/13 07:32:08;;;;;;;4.68;1.50;;;;;;;22.48;59.28;101490.91;5075756;28;20144;-61
2021/09/13 07:34:35;;;;;;;3.95;1.77;;;;;;;22.48;59.18;101491.72;5059336;28;20032;-61
2021/09/13 07:37:01;;;;;;;4.30;1.40;;;;;;;22.48;59.37;101491.72;5068413;28;20033;-60
2021/09/13 07:39:28;;;;;;;5.43;1.40;;;;;;;22.47;59.55;101486.59;5068167;28;20483;-61
2021/09/13 07:41:55;;;;;;;7.70;1.77;;;;;;;22.47;59.24;101492.75;5068355;28;20028;-61
2021/09/13 07:44:20;;;;;;;5.18;1.90;;;;;;;22.46;59.44;101488.44;5066066;28;20029;-61
2021/09/13 07:46:46;;;;;;;6.38;1.90;;;;;;;22.45;58.98;101489.47;5068055;28;20070;-61
2021/09/13 07:49:12;;;;;;;6.28;1.92;;;;;;;22.45;59.51;101483.28;5069117;28;20048;-61
2021/09/13 07:51:37;;;;;;;8.40;2.25;;;;;;;22.44;59.53;101481.66;5072280;28;20052;-61
2021/09/13 07:54:05;;;;;;;6.00;1.90;;;;;;;22.44;59.53;101481.66;5076445;28;20101;-61
2021/09/13 07:56:31;;;;;;;8.23;2.38;;;;;;;22.41;59.44;101483.69;5080636;28;20074;-61
2021/09/13 07:58:56;;;;;;;7.68;2.30;;;;;;;22.40;59.25;101481.19;5063543;28;20041;-61
2021/09/13 08:01:22;;;;;;;7.25;2.08;;;;;;;22.39;59.72;101469.69;5063761;28;20067;-62
2021/09/13 08:03:47;;;;;;;6.10;2.30;;;;;;;22.38;59.64;101480.56;5062987;28;20078;-61
2021/09/13 08:06:13;;;;;;;7.78;2.17;;;;;;;22.38;59.92;101477.91;5066765;28;20032;-61
2021/09/13 08:08:38;;;;;;;6.10;2.53;;;;;;;22.37;59.92;101476.25;5067490;28;20060;-61
2021/09/13 08:11:06;;;;;;;7.57;2.33;;;;;;;22.36;59.67;101471.94;5066486;28;20040;-61
2021/09/13 08:13:33;;;;;;;7.03;2.20;;;;;;;22.37;59.80;101470.91;5074209;28;20044;-61
2021/09/13 08:15:59;;;;;;;6.47;1.92;;;;;;;22.35;59.53;101467.63;5070126;28;20217;-61
2021/09/13 08:18:25;;;;;;;6.63;2.17;;;;;;;22.34;59.92;101465.97;5070615;28;20090;-61
2021/09/13 08:20:50;;;;;;;5.72;2.00;;;;;;;22.33;59.60;101470.50;5080505;28;20464;-61
2021/09/13 08:23:16;;;;;;;4.63;2.20;;;;;;;22.33;59.69;101462.47;5079995;28;20059;-61
2021/09/13 08:25:41;;;;;;;4.05;1.90;;;;;;;22.33;59.60;101465.13;5074293;28;20109;-61
2021/09/13 08:28:07;;;;;;;4.85;2.00;;;;;;;22.33;59.46;101462.47;5076640;28;20094;-61
2021/09/13 08:30:32;;;;;;;4.60;2.13;;;;;;;22.33;59.21;101464.31;5076274;28;20484;-61
2021/09/13 08:32:59;;;;;;;3.70;2.28;;;;;;;22.32;59.53;101465.34;5079196;28;20444;-61
2021/09/13 08:35:24;;;;;;;7.53;1.80;;;;;;;22.31;59.31;101461.03;5072158;28;20107;-61
2021/09/13 08:37:50;;;;;;;4.03;2.03;;;;;;;22.30;59.00;101460.19;5069209;28;20111;-61
2021/09/13 08:40:16;;;;;;;3.83;2.05;;;;;;;22.30;59.09;101456.69;5070613;28;20063;-61
2021/09/13 08:42:46;;;;;;;4.10;1.90;;;;;;;22.28;59.22;101467.59;5071319;28;20060;-61
2021/09/13 08:45:16;;;;;;;5.05;1.73;;;;;;;22.29;59.15;101468.41;5056849;28;20032;-61
2021/09/13 08:51:03;;;;;;;3.63;1.55;;;;;;;22.27;58.94;101460.59;5070141;28;20068;-61
2021/09/13 08:53:14;;;;;;;3.85;1.70;;;;;;;22.25;58.82;101459.97;5069354;28;20051;-61
2021/09/13 08:55:39;;;;;;;5.43;2.28;;;;;;;22.25;58.36;101451.09;5070741;28;20040;-61
2021/09/13 08:58:07;;;;;;;4.38;1.88;;;;;;;22.24;58.62;101457.47;5070579;28;20086;-61
2021/09/13 09:00:33;;;;;;;2.40;1.80;;;;;;;22.25;58.50;101456.44;5068610;28;20215;-61
2021/09/13 09:02:59;;;;;;;5.68;1.65;;;;;;;22.24;58.67;101462.81;5070818;28;20037;-61
2021/09/13 09:05:26;;;;;;;6.50;1.90;;;;;;;22.22;58.69;101459.53;5069553;28;20040;-61
2021/09/13 09:07:54;;;;;;;2.95;1.50;;;;;;;22.22;58.57;101467.53;5070249;28;20045;-61
2021/09/13 09:10:31;;;;;;;3.65;1.95;;;;;;;22.22;58.27;101464.88;5070044;28;20036;-61
2021/09/13 09:13:07;;;;;;;2.58;1.80;;;;;;;22.21;58.44;101463.22;5070271;28;20032;-61
2021/09/13 09:15:33;;;;;;;2.85;1.80;;;;;;;22.20;58.49;101464.25;5069868;28;20021;-61
2021/09/13 09:18:00;;;;;;;3.00;1.90;;;;;;;22.20;58.79;101461.56;5069970;28;20062;-61
2021/09/13 09:20:27;;;;;;;3.28;1.70;;;;;;;22.20;58.45;101464.25;5069279;28;20055;-61
2021/09/13 09:23:00;;;;;;;2.15;1.60;;;;;;;22.18;58.43;101458.28;5068736;28;20047;-61
2021/09/13 09:25:29;;;;;;;3.03;1.85;;;;;;;22.18;58.38;101458.28;5069649;28;20062;-61
2021/09/13 09:28:00;;;;;;;2.97;1.70;;;;;;;22.18;58.54;101460.97;5069946;28;20028;-61
2021/09/13 09:30:42;;;;;;;2.60;1.70;;;;;;;22.14;58.53;101449.03;5069137;28;20060;-61
2021/09/13 09:33:19;;;;;;;3.03;1.60;;;;;;;22.16;58.58;101452.31;5069663;28;20033;-61
2021/09/13 09:35:46;;;;;;;2.97;1.60;;;;;;;22.17;58.95;101451.28;5069946;28;20166;-62
2021/09/13 09:38:36;;;;;;;3.70;1.85;;;;;;;22.14;58.58;101454.38;5069607;28;20135;-61
2021/09/13 09:41:10;;;;;;;4.18;1.70;;;;;;;22.16;58.71;101449.66;5069592;28;20028;-61
2021/09/13 09:43:55;;;;;;;2.42;1.60;;;;;;;22.14;58.68;101449.03;5068784;28;20361;-61
2021/09/13 09:46:22;;;;;;;3.33;1.77;;;;;;;22.18;58.60;101452.94;5069235;28;20033;-61
2021/09/13 09:48:47;;;;;;;4.15;2.10;;;;;;;22.17;59.05;101453.97;5069087;28;20498;-61
2021/09/13 09:51:36;;;;;;;3.10;1.73;;;;;;;22.14;58.88;101446.34;5069545;28;20036;-61
2021/09/13 09:54:26;;;;;;;4.60;2.10;;;;;;;22.13;58.95;101447.38;5068006;28;20107;-63
2021/09/13 09:57:06;;;;;;;3.33;1.70;;;;;;;22.14;59.00;101446.34;5069480;28;20090;-61
2021/09/13 09:59:36;;;;;;;3.38;1.67;;;;;;;22.16;58.64;101441.63;5069063;28;20044;-61
2021/09/13 10:02:17;;;;;;;2.03;1.40;;;;;;;22.14;58.96;101446.34;5069104;28;20024;-61
2021/09/13 10:04:47;;;;;;;2.83;1.70;;;;;;;22.15;58.87;101445.31;5069027;28;20381;-61
2021/09/13 10:07:15;;;;;;;2.65;1.60;;;;;;;22.15;58.62;101448.00;5068722;28;20041;-61
2021/09/13 10:09:41;;;;;;;2.45;1.70;;;;;;;22.12;58.88;101438.53;5069083;28;20036;-61
2021/09/13 10:12:08;;;;;;;1.95;1.42;;;;;;;22.11;58.42;101447.56;5067591;28;20384;-61
2021/09/13 10:14:35;;;;;;;2.42;1.55;;;;;;;22.11;58.54;101439.56;5066938;28;20650;-61
2021/09/13 10:17:01;;;;;;;2.20;1.42;;;;;;;22.09;58.83;101439.75;5068893;28;20037;-61
2021/09/13 10:19:28;;;;;;;5.40;1.77;;;;;;;22.08;58.75;101437.25;5068226;28;20040;-61
2021/09/13 10:21:55;;;;;;;2.72;1.63;;;;;;;22.08;58.35;101434.59;5067425;28;20168;-61
2021/09/13 10:24:31;;;;;;;1.77;1.30;;;;;;;22.06;58.78;101432.13;5068603;28;20536;-61
2021/09/13 10:27:11;;;;;;;2.33;1.50;;;;;;;;;;5068301;28;20053;-61
2021/09/13 10:29:38;;;;;;;2.13;1.50;;;;;;;22.07;58.51;101439.09;5068314;28;20362;-61
2021/09/13 10:32:06;;;;;;;1.90;1.23;;;;;;;22.06;58.55;101434.78;5068766;28;20036;-61
2021/09/13 10:34:47;;;;;;;1.40;1.30;;;;;;;22.02;58.89;101427.34;5067893;28;20048;-61
2021/09/13 10:37:21;;;;;;;2.72;1.60;;;;;;;22.02;58.68;101428.16;5069121;28;20047;-61
2021/09/13 10:40:03;;;;;;;2.20;1.20;;;;;;;22.03;58.65;101429.00;5068106;28;20053;-61
2021/09/13 10:42:42;;;;;;;1.90;1.20;;;;;;;22.01;58.53;101420.34;5068884;28;20028;-61
2021/09/13 10:45:15;;;;;;;3.25;1.50;;;;;;;22.01;58.60;101423.84;5068083;28;20059;-61
2021/09/13 10:47:49;;;;;;;2.67;1.40;;;;;;;22.03;58.54;101429.00;5068682;28;20032;-61
2021/09/13 10:50:27;;;;;;;2.87;1.47;;;;;;;22.00;58.38;101422.19;5054583;28;20036;-60
2021/09/13 10:52:57;;;;;;;1.52;1.20;;;;;;;22.02;58.62;101419.31;5068635;28;20040;-60
2021/09/13 10:55:24;;;;;;;2.15;1.40;;;;;;;22.02;58.70;101413.97;5068554;28;20064;-60
2021/09/13 10:58:05;;;;;;;2.13;1.10;;;;;;;22.02;58.60;101420.16;5068635;28;20075;-60
2021/09/13 11:00:40;;;;;;;2.08;1.20;;;;;;;22.02;58.63;101414.81;5054229;28;20545;-60
2021/09/13 11:03:33;;;;;;;2.28;1.42;;;;;;;22.00;58.35;101413.38;5068610;28;20067;-60
2021/09/13 11:06:17;;;;;;;2.42;1.40;;;;;;;22.02;58.57;101413.97;5058507;28;20039;-60
2021/09/13 11:08:49;;;;;;;3.63;1.52;;;;;;;22.02;58.71;101408.66;5067600;28;20036;-60
2021/09/13 11:11:36;;;;;;;2.53;1.42;;;;;;;21.98;58.87;101412.75;5068774;28;20048;-60
2021/09/13 11:14:06;;;;;;;2.15;1.48;;;;;;;22.01;58.81;101409.66;5053986;28;20024;-60
2021/09/13 11:16:34;;;;;;;2.13;1.25;;;;;;;22.00;58.49;101408.03;5068344;28;20074;-60
2021/09/13 11:19:03;;;;;;;1.85;1.40;;;;;;;22.00;58.70;101405.34;5067860;28;20043;-60
2021/09/13 11:21:30;;;;;;;1.58;1.35;;;;;;;21.99;58.53;101412.53;5067038;28;20039;-60
2021/09/13 11:24:01;;;;;;;3.33;1.50;;;;;;;21.99;58.55;101406.38;5068266;28;20024;-60
2021/09/13 11:26:36;;;;;;;2.20;1.30;;;;;;;21.96;58.47;101409.44;5068238;28;20043;-60
2021/09/13 11:29:04;;;;;;;;;;;;;;;21.90;58.60;101410.22;5066438;28;20442;-60
2021/09/13 11:31:41;;;;;;;2.55;1.40;;;;;;;21.93;58.78;101402.63;5067988;28;19977;-60
2021/09/13 11:34:12;;;;;;;2.40;1.30;;;;;;;21.93;58.63;101399.97;5067841;28;20103;-60